This is the latest recevied weather packets stored in our database for station/object DL5ARK. If no packets are shown the sender has not sent any weather packets the latest 10 day(s).
| Time | Temp. | Humidity | Pressure | Rain* | Wind** | Luminosity | Snow |
|---|---|---|---|---|---|---|---|
| 1777170648 | 3.89° C | 75% | 1007.7 hPa | 0 mm | - | - | - |
| 1777170467 | 4.44° C | 75% | 1007.7 hPa | 0 mm | - | - | - |
| 1777170288 | 4.44° C | 75% | 1007.7 hPa | 0 mm | - | - | - |
| 1777170111 | 4.44° C | 75% | 1007.7 hPa | 0 mm | - | - | - |
| 1777169927 | 4.44° C | 75% | 1007.7 hPa | 0 mm | - | - | - |
| 1777169748 | 4.44° C | 76% | 1007.7 hPa | 0 mm | - | - | - |
| 1777169567 | 5° C | 75% | 1007.7 hPa | 0 mm | - | - | - |
| 1777169387 | 5° C | 76% | 1007.7 hPa | 0 mm | - | - | - |
| 1777169207 | 5° C | 76% | 1007.5 hPa | 0 mm | - | - | - |
| 1777169027 | 5° C | 76% | 1007.5 hPa | 0 mm | - | - | - |
| 1777168668 | 5.56° C | 76% | 1007.5 hPa | 0 mm | - | - | - |
| 1777168488 | 5° C | 76% | 1007.5 hPa | 0 mm | - | - | - |
| 1777168308 | 5.56° C | 76% | 1007.5 hPa | 0 mm | - | - | - |
| 1777168127 | 5° C | 76% | 1007.2 hPa | 0 mm | - | - | - |
| 1777167947 | 5.56° C | 77% | 1007.5 hPa | 0 mm | - | - | - |
| 1777167767 | 4.44° C | 75% | 1007.2 hPa | 0 mm | - | - | - |
| 1777167407 | 5.56° C | 76% | 1007.2 hPa | 0 mm | - | - | - |
| 1777167227 | 5.56° C | 77% | 1007.2 hPa | 0 mm | - | - | - |
| 1777167047 | 6.11° C | 77% | 1007.2 hPa | 0 mm | - | - | - |
| 1777166868 | 5.56° C | 77% | 1007.2 hPa | 0 mm | - | - | - |
| 1777166687 | 5.56° C | 77% | 1007.2 hPa | 0 mm | - | - | - |
| 1777166507 | 4.44° C | 75% | 1007.2 hPa | 0 mm | - | - | - |
| 1777166147 | 4.44° C | 78% | 1007 hPa | 0 mm | - | - | - |
| 1777165967 | 2.78° C | 74% | 1007 hPa | 0 mm | - | - | - |
| 1777165787 | 0.56° C | 71% | 1007 hPa | 0 mm | - | - | - |
* Rain latest hour (hover to see other rain measurements)
** Current wind speed in m/s (hover to see current wind gust speed)